sensor_id;sensor_type;location;lat;lon;timestamp;P1;durP1;ratioP1;P2;durP2;ratioP2
76725;SDS011;65651;53.154;17.916;2023-06-22T00:00:19;18.60;;;14.00;;
76725;SDS011;65651;53.154;17.916;2023-06-22T00:03:08;17.90;;;12.80;;
76725;SDS011;65651;53.154;17.916;2023-06-22T00:05:35;14.30;;;12.70;;
76725;SDS011;65651;53.154;17.916;2023-06-22T00:08:03;17.60;;;13.70;;
76725;SDS011;65651;53.154;17.916;2023-06-22T00:10:36;16.00;;;13.90;;
76725;SDS011;65651;53.154;17.916;2023-06-22T00:13:06;18.20;;;14.00;;
76725;SDS011;65651;53.154;17.916;2023-06-22T00:15:37;17.70;;;14.50;;
76725;SDS011;65651;53.154;17.916;2023-06-22T00:18:06;16.40;;;13.20;;
76725;SDS011;65651;53.154;17.916;2023-06-22T00:20:37;18.50;;;14.10;;
76725;SDS011;65651;53.154;17.916;2023-06-22T00:23:05;16.80;;;14.50;;
76725;SDS011;65651;53.154;17.916;2023-06-22T00:25:39;15.60;;;13.50;;
76725;SDS011;65651;53.154;17.916;2023-06-22T00:28:07;13.70;;;12.10;;
76725;SDS011;65651;53.154;17.916;2023-06-22T00:30:35;14.80;;;12.50;;
76725;SDS011;65651;53.154;17.916;2023-06-22T00:33:02;16.10;;;13.20;;
76725;SDS011;65651;53.154;17.916;2023-06-22T00:35:30;16.50;;;13.10;;
76725;SDS011;65651;53.154;17.916;2023-06-22T00:37:58;15.40;;;13.00;;
76725;SDS011;65651;53.154;17.916;2023-06-22T00:40:32;18.40;;;13.90;;
76725;SDS011;65651;53.154;17.916;2023-06-22T00:42:59;16.10;;;14.20;;
76725;SDS011;65651;53.154;17.916;2023-06-22T00:45:27;17.30;;;14.10;;
76725;SDS011;65651;53.154;17.916;2023-06-22T00:47:56;16.60;;;13.80;;
76725;SDS011;65651;53.154;17.916;2023-06-22T00:50:26;16.80;;;13.60;;
76725;SDS011;65651;53.154;17.916;2023-06-22T00:53:06;15.90;;;13.20;;
76725;SDS011;65651;53.154;17.916;2023-06-22T00:55:36;15.10;;;13.00;;
76725;SDS011;65651;53.154;17.916;2023-06-22T00:58:10;15.70;;;13.10;;
76725;SDS011;65651;53.154;17.916;2023-06-22T01:00:39;13.80;;;11.90;;
76725;SDS011;65651;53.154;17.916;2023-06-22T01:03:08;15.00;;;12.00;;
76725;SDS011;65651;53.154;17.916;2023-06-22T01:05:41;10.70;;;8.50;;
76725;SDS011;65651;53.154;17.916;2023-06-22T01:08:12;10.30;;;9.20;;
76725;SDS011;65651;53.154;17.916;2023-06-22T01:13:16;9.40;;;8.40;;
76725;SDS011;65651;53.154;17.916;2023-06-22T01:15:54;8.50;;;7.30;;
76725;SDS011;65651;53.154;17.916;2023-06-22T01:18:29;10.20;;;7.40;;
76725;SDS011;65651;53.154;17.916;2023-06-22T01:21:06;9.80;;;7.50;;
76725;SDS011;65651;53.154;17.916;2023-06-22T01:23:50;9.10;;;7.00;;
76725;SDS011;65651;53.154;17.916;2023-06-22T01:26:38;8.30;;;7.00;;
76725;SDS011;65651;53.154;17.916;2023-06-22T01:29:17;7.40;;;6.50;;
76725;SDS011;65651;53.154;17.916;2023-06-22T01:31:50;10.00;;;7.30;;
76725;SDS011;65651;53.154;17.916;2023-06-22T01:34:20;10.00;;;6.60;;
76725;SDS011;65651;53.154;17.916;2023-06-22T01:36:48;8.60;;;6.40;;
76725;SDS011;65651;53.154;17.916;2023-06-22T01:39:17;11.20;;;7.80;;
76725;SDS011;65651;53.154;17.916;2023-06-22T01:41:47;9.50;;;6.90;;
76725;SDS011;65651;53.154;17.916;2023-06-22T01:44:16;8.60;;;7.60;;
76725;SDS011;65651;53.154;17.916;2023-06-22T01:46:44;8.10;;;6.80;;
76725;SDS011;65651;53.154;17.916;2023-06-22T01:49:16;12.00;;;7.50;;
76725;SDS011;65651;53.154;17.916;2023-06-22T01:51:43;8.80;;;7.10;;
76725;SDS011;65651;53.154;17.916;2023-06-22T01:54:16;9.20;;;7.30;;
76725;SDS011;65651;53.154;17.916;2023-06-22T01:56:50;9.80;;;7.30;;
76725;SDS011;65651;53.154;17.916;2023-06-22T01:59:24;8.70;;;7.10;;
76725;SDS011;65651;53.154;17.916;2023-06-22T02:02:11;10.80;;;7.90;;
76725;SDS011;65651;53.154;17.916;2023-06-22T02:04:58;9.20;;;7.60;;
76725;SDS011;65651;53.154;17.916;2023-06-22T02:07:31;11.40;;;8.60;;
76725;SDS011;65651;53.154;17.916;2023-06-22T02:10:03;9.20;;;7.40;;
76725;SDS011;65651;53.154;17.916;2023-06-22T02:12:31;9.10;;;8.00;;
76725;SDS011;65651;53.154;17.916;2023-06-22T02:15:00;12.20;;;8.30;;
76725;SDS011;65651;53.154;17.916;2023-06-22T02:17:28;9.20;;;8.10;;
76725;SDS011;65651;53.154;17.916;2023-06-22T02:20:03;11.50;;;9.00;;
76725;SDS011;65651;53.154;17.916;2023-06-22T02:22:36;9.80;;;8.10;;
76725;SDS011;65651;53.154;17.916;2023-06-22T02:25:06;12.60;;;9.30;;
76725;SDS011;65651;53.154;17.916;2023-06-22T02:27:34;10.40;;;8.80;;
76725;SDS011;65651;53.154;17.916;2023-06-22T02:30:03;10.10;;;7.80;;
76725;SDS011;65651;53.154;17.916;2023-06-22T02:32:32;10.90;;;8.20;;
76725;SDS011;65651;53.154;17.916;2023-06-22T02:35:01;11.20;;;7.10;;
76725;SDS011;65651;53.154;17.916;2023-06-22T02:37:31;9.00;;;7.40;;
76725;SDS011;65651;53.154;17.916;2023-06-22T02:39:59;6.70;;;5.80;;
76725;SDS011;65651;53.154;17.916;2023-06-22T02:42:29;8.90;;;5.90;;
76725;SDS011;65651;53.154;17.916;2023-06-22T02:45:00;7.70;;;5.20;;
76725;SDS011;65651;53.154;17.916;2023-06-22T02:47:27;6.70;;;4.30;;
76725;SDS011;65651;53.154;17.916;2023-06-22T02:49:55;8.20;;;5.40;;
76725;SDS011;65651;53.154;17.916;2023-06-22T02:52:25;6.90;;;5.20;;
76725;SDS011;65651;53.154;17.916;2023-06-22T02:54:53;5.60;;;4.20;;
76725;SDS011;65651;53.154;17.916;2023-06-22T02:57:25;9.20;;;5.40;;
76725;SDS011;65651;53.154;17.916;2023-06-22T02:59:53;6.70;;;5.00;;
76725;SDS011;65651;53.154;17.916;2023-06-22T03:02:22;7.00;;;4.80;;
76725;SDS011;65651;53.154;17.916;2023-06-22T03:04:49;7.00;;;4.80;;
76725;SDS011;65651;53.154;17.916;2023-06-22T03:07:20;7.60;;;4.50;;
76725;SDS011;65651;53.154;17.916;2023-06-22T03:09:48;9.00;;;5.40;;
76725;SDS011;65651;53.154;17.916;2023-06-22T03:12:15;8.10;;;5.40;;
76725;SDS011;65651;53.154;17.916;2023-06-22T03:14:49;7.10;;;5.10;;
76725;SDS011;65651;53.154;17.916;2023-06-22T03:17:16;7.70;;;5.10;;
76725;SDS011;65651;53.154;17.916;2023-06-22T03:19:44;4.90;;;4.40;;
76725;SDS011;65651;53.154;17.916;2023-06-22T03:22:12;8.60;;;5.50;;
76725;SDS011;65651;53.154;17.916;2023-06-22T03:24:39;6.10;;;5.20;;
76725;SDS011;65651;53.154;17.916;2023-06-22T03:27:06;8.20;;;5.00;;
76725;SDS011;65651;53.154;17.916;2023-06-22T03:29:34;5.20;;;4.70;;
76725;SDS011;65651;53.154;17.916;2023-06-22T03:32:01;5.50;;;4.40;;
76725;SDS011;65651;53.154;17.916;2023-06-22T03:34:32;8.10;;;4.90;;
76725;SDS011;65651;53.154;17.916;2023-06-22T03:37:07;9.10;;;5.40;;
76725;SDS011;65651;53.154;17.916;2023-06-22T03:39:35;6.90;;;4.80;;
76725;SDS011;65651;53.154;17.916;2023-06-22T03:42:02;5.30;;;3.80;;
76725;SDS011;65651;53.154;17.916;2023-06-22T03:44:30;7.30;;;4.10;;
76725;SDS011;65651;53.154;17.916;2023-06-22T03:46:58;7.60;;;4.10;;
76725;SDS011;65651;53.154;17.916;2023-06-22T03:49:26;6.00;;;3.50;;
76725;SDS011;65651;53.154;17.916;2023-06-22T03:51:53;5.50;;;3.80;;
76725;SDS011;65651;53.154;17.916;2023-06-22T03:54:20;5.30;;;3.90;;
76725;SDS011;65651;53.154;17.916;2023-06-22T03:56:48;6.40;;;3.90;;
76725;SDS011;65651;53.154;17.916;2023-06-22T03:59:15;5.30;;;3.60;;
76725;SDS011;65651;53.154;17.916;2023-06-22T04:01:43;6.10;;;3.40;;
76725;SDS011;65651;53.154;17.916;2023-06-22T04:04:13;6.10;;;3.30;;
76725;SDS011;65651;53.154;17.916;2023-06-22T04:06:44;7.40;;;3.50;;
76725;SDS011;65651;53.154;17.916;2023-06-22T04:09:11;4.20;;;3.30;;
76725;SDS011;65651;53.154;17.916;2023-06-22T04:11:40;7.90;;;3.20;;
76725;SDS011;65651;53.154;17.916;2023-06-22T04:14:07;6.10;;;3.20;;
76725;SDS011;65651;53.154;17.916;2023-06-22T04:16:35;6.30;;;3.60;;
76725;SDS011;65651;53.154;17.916;2023-06-22T04:19:02;4.40;;;3.20;;
76725;SDS011;65651;53.154;17.916;2023-06-22T04:21:29;6.60;;;3.60;;
76725;SDS011;65651;53.154;17.916;2023-06-22T04:23:57;5.90;;;3.30;;
76725;SDS011;65651;53.154;17.916;2023-06-22T04:26:24;6.30;;;3.40;;
76725;SDS011;65651;53.154;17.916;2023-06-22T04:28:51;4.10;;;2.90;;
76725;SDS011;65651;53.154;17.916;2023-06-22T04:31:22;4.20;;;3.80;;
76725;SDS011;65651;53.154;17.916;2023-06-22T04:34:04;4.80;;;3.30;;
76725;SDS011;65651;53.154;17.916;2023-06-22T04:36:36;5.70;;;3.40;;
76725;SDS011;65651;53.154;17.916;2023-06-22T04:39:09;5.00;;;3.10;;
76725;SDS011;65651;53.154;17.916;2023-06-22T04:41:40;4.40;;;3.10;;
76725;SDS011;65651;53.154;17.916;2023-06-22T04:44:11;3.80;;;3.50;;
76725;SDS011;65651;53.154;17.916;2023-06-22T04:46:56;4.30;;;3.50;;
76725;SDS011;65651;53.154;17.916;2023-06-22T04:49:29;4.20;;;3.70;;
76725;SDS011;65651;53.154;17.916;2023-06-22T04:52:02;3.50;;;3.00;;
76725;SDS011;65651;53.154;17.916;2023-06-22T04:54:31;3.60;;;2.90;;
76725;SDS011;65651;53.154;17.916;2023-06-22T04:57:03;7.00;;;4.00;;
76725;SDS011;65651;53.154;17.916;2023-06-22T04:59:42;5.40;;;4.70;;
76725;SDS011;65651;53.154;17.916;2023-06-22T05:02:16;4.70;;;3.00;;
76725;SDS011;65651;53.154;17.916;2023-06-22T05:04:43;6.70;;;3.40;;
76725;SDS011;65651;53.154;17.916;2023-06-22T05:07:12;5.00;;;3.10;;
76725;SDS011;65651;53.154;17.916;2023-06-22T05:09:40;4.20;;;2.40;;
76725;SDS011;65651;53.154;17.916;2023-06-22T05:12:08;4.70;;;3.50;;
76725;SDS011;65651;53.154;17.916;2023-06-22T05:14:36;4.90;;;3.20;;
76725;SDS011;65651;53.154;17.916;2023-06-22T05:17:03;4.90;;;2.70;;
76725;SDS011;65651;53.154;17.916;2023-06-22T05:19:34;3.90;;;3.50;;
76725;SDS011;65651;53.154;17.916;2023-06-22T05:22:01;4.40;;;3.40;;
76725;SDS011;65651;53.154;17.916;2023-06-22T05:24:28;6.10;;;3.90;;
76725;SDS011;65651;53.154;17.916;2023-06-22T05:26:56;5.70;;;3.40;;
76725;SDS011;65651;53.154;17.916;2023-06-22T05:29:23;4.80;;;2.90;;
76725;SDS011;65651;53.154;17.916;2023-06-22T05:31:50;5.60;;;2.90;;
76725;SDS011;65651;53.154;17.916;2023-06-22T05:34:18;5.40;;;3.20;;
76725;SDS011;65651;53.154;17.916;2023-06-22T05:36:45;4.90;;;2.90;;
76725;SDS011;65651;53.154;17.916;2023-06-22T05:39:15;4.00;;;2.80;;
76725;SDS011;65651;53.154;17.916;2023-06-22T05:41:43;5.40;;;3.20;;
76725;SDS011;65651;53.154;17.916;2023-06-22T05:44:11;4.20;;;3.00;;
76725;SDS011;65651;53.154;17.916;2023-06-22T05:46:42;3.90;;;2.70;;
76725;SDS011;65651;53.154;17.916;2023-06-22T05:49:13;5.00;;;3.30;;
76725;SDS011;65651;53.154;17.916;2023-06-22T05:51:42;3.70;;;2.80;;
76725;SDS011;65651;53.154;17.916;2023-06-22T05:54:10;4.20;;;3.20;;
76725;SDS011;65651;53.154;17.916;2023-06-22T05:56:37;5.80;;;2.50;;
76725;SDS011;65651;53.154;17.916;2023-06-22T05:59:07;3.30;;;3.00;;
76725;SDS011;65651;53.154;17.916;2023-06-22T06:01:34;4.00;;;3.00;;
76725;SDS011;65651;53.154;17.916;2023-06-22T06:04:05;3.70;;;3.00;;
76725;SDS011;65651;53.154;17.916;2023-06-22T06:06:34;4.50;;;2.70;;
76725;SDS011;65651;53.154;17.916;2023-06-22T06:09:05;3.90;;;2.70;;
76725;SDS011;65651;53.154;17.916;2023-06-22T06:11:36;2.60;;;2.40;;
76725;SDS011;65651;53.154;17.916;2023-06-22T06:14:03;3.80;;;2.60;;
76725;SDS011;65651;53.154;17.916;2023-06-22T06:16:30;3.90;;;2.30;;
76725;SDS011;65651;53.154;17.916;2023-06-22T06:18:59;2.70;;;2.40;;
76725;SDS011;65651;53.154;17.916;2023-06-22T06:21:26;2.70;;;2.10;;
76725;SDS011;65651;53.154;17.916;2023-06-22T06:23:54;3.60;;;2.40;;
76725;SDS011;65651;53.154;17.916;2023-06-22T06:26:21;2.70;;;2.30;;
76725;SDS011;65651;53.154;17.916;2023-06-22T06:28:57;4.10;;;2.20;;
76725;SDS011;65651;53.154;17.916;2023-06-22T06:31:24;3.00;;;2.10;;
76725;SDS011;65651;53.154;17.916;2023-06-22T06:33:54;7.00;;;2.80;;
76725;SDS011;65651;53.154;17.916;2023-06-22T06:36:22;2.90;;;2.00;;
76725;SDS011;65651;53.154;17.916;2023-06-22T06:38:53;4.20;;;2.30;;
76725;SDS011;65651;53.154;17.916;2023-06-22T06:41:20;4.80;;;2.60;;
76725;SDS011;65651;53.154;17.916;2023-06-22T06:43:50;2.90;;;2.20;;
76725;SDS011;65651;53.154;17.916;2023-06-22T06:46:18;4.40;;;2.00;;
76725;SDS011;65651;53.154;17.916;2023-06-22T06:48:46;3.70;;;2.20;;
76725;SDS011;65651;53.154;17.916;2023-06-22T06:51:14;3.20;;;2.40;;
76725;SDS011;65651;53.154;17.916;2023-06-22T06:53:41;4.60;;;2.50;;
76725;SDS011;65651;53.154;17.916;2023-06-22T06:56:08;4.00;;;2.50;;
76725;SDS011;65651;53.154;17.916;2023-06-22T06:58:41;3.50;;;2.40;;
76725;SDS011;65651;53.154;17.916;2023-06-22T07:01:09;4.00;;;2.00;;
76725;SDS011;65651;53.154;17.916;2023-06-22T07:03:36;4.30;;;2.00;;
76725;SDS011;65651;53.154;17.916;2023-06-22T07:06:03;3.80;;;2.20;;
76725;SDS011;65651;53.154;17.916;2023-06-22T07:08:31;3.90;;;2.10;;
76725;SDS011;65651;53.154;17.916;2023-06-22T07:10:58;2.90;;;2.00;;
76725;SDS011;65651;53.154;17.916;2023-06-22T07:13:27;2.60;;;2.10;;
76725;SDS011;65651;53.154;17.916;2023-06-22T07:15:55;3.30;;;1.80;;
76725;SDS011;65651;53.154;17.916;2023-06-22T07:18:23;3.50;;;2.20;;
76725;SDS011;65651;53.154;17.916;2023-06-22T07:20:51;5.20;;;2.10;;
76725;SDS011;65651;53.154;17.916;2023-06-22T07:23:19;5.90;;;2.10;;
76725;SDS011;65651;53.154;17.916;2023-06-22T07:25:47;2.70;;;1.90;;
76725;SDS011;65651;53.154;17.916;2023-06-22T07:28:14;5.90;;;2.40;;
76725;SDS011;65651;53.154;17.916;2023-06-22T07:30:41;3.70;;;2.10;;
76725;SDS011;65651;53.154;17.916;2023-06-22T07:33:11;3.00;;;2.00;;
76725;SDS011;65651;53.154;17.916;2023-06-22T07:35:39;4.50;;;2.10;;
76725;SDS011;65651;53.154;17.916;2023-06-22T07:38:06;3.60;;;2.00;;
76725;SDS011;65651;53.154;17.916;2023-06-22T07:40:33;3.10;;;1.80;;
76725;SDS011;65651;53.154;17.916;2023-06-22T07:43:02;2.20;;;2.00;;
76725;SDS011;65651;53.154;17.916;2023-06-22T07:45:30;3.60;;;2.00;;
76725;SDS011;65651;53.154;17.916;2023-06-22T07:48:00;2.80;;;1.90;;
76725;SDS011;65651;53.154;17.916;2023-06-22T07:50:28;3.30;;;1.70;;
76725;SDS011;65651;53.154;17.916;2023-06-22T07:52:55;3.50;;;1.80;;
76725;SDS011;65651;53.154;17.916;2023-06-22T07:55:23;2.50;;;1.90;;
76725;SDS011;65651;53.154;17.916;2023-06-22T07:57:50;2.30;;;1.70;;
76725;SDS011;65651;53.154;17.916;2023-06-22T08:00:19;2.30;;;1.30;;
76725;SDS011;65651;53.154;17.916;2023-06-22T08:02:47;2.10;;;1.90;;
76725;SDS011;65651;53.154;17.916;2023-06-22T08:05:14;3.40;;;1.90;;
76725;SDS011;65651;53.154;17.916;2023-06-22T08:07:42;2.90;;;2.00;;
76725;SDS011;65651;53.154;17.916;2023-06-22T08:10:11;3.20;;;1.70;;
76725;SDS011;65651;53.154;17.916;2023-06-22T08:12:40;4.40;;;2.30;;
76725;SDS011;65651;53.154;17.916;2023-06-22T08:15:07;3.60;;;1.90;;
76725;SDS011;65651;53.154;17.916;2023-06-22T08:17:37;5.40;;;2.10;;
76725;SDS011;65651;53.154;17.916;2023-06-22T08:20:06;2.60;;;1.90;;
76725;SDS011;65651;53.154;17.916;2023-06-22T08:22:53;5.50;;;2.50;;
76725;SDS011;65651;53.154;17.916;2023-06-22T08:25:45;3.10;;;1.60;;
76725;SDS011;65651;53.154;17.916;2023-06-22T08:28:14;2.10;;;1.90;;
76725;SDS011;65651;53.154;17.916;2023-06-22T08:30:42;2.30;;;1.80;;
76725;SDS011;65651;53.154;17.916;2023-06-22T08:33:09;3.60;;;1.90;;
76725;SDS011;65651;53.154;17.916;2023-06-22T08:35:37;2.50;;;1.90;;
76725;SDS011;65651;53.154;17.916;2023-06-22T08:38:07;3.80;;;2.30;;
76725;SDS011;65651;53.154;17.916;2023-06-22T08:40:35;3.00;;;1.90;;
76725;SDS011;65651;53.154;17.916;2023-06-22T08:43:03;3.50;;;2.00;;
76725;SDS011;65651;53.154;17.916;2023-06-22T08:45:31;2.80;;;2.00;;
76725;SDS011;65651;53.154;17.916;2023-06-22T08:47:59;2.60;;;1.80;;
76725;SDS011;65651;53.154;17.916;2023-06-22T08:50:45;3.40;;;1.50;;
76725;SDS011;65651;53.154;17.916;2023-06-22T08:53:16;3.40;;;2.10;;
76725;SDS011;65651;53.154;17.916;2023-06-22T08:55:43;2.70;;;2.10;;
76725;SDS011;65651;53.154;17.916;2023-06-22T08:58:12;6.70;;;2.40;;
76725;SDS011;65651;53.154;17.916;2023-06-22T09:00:42;2.10;;;1.70;;
76725;SDS011;65651;53.154;17.916;2023-06-22T09:03:09;2.50;;;1.90;;
76725;SDS011;65651;53.154;17.916;2023-06-22T09:05:37;3.90;;;1.90;;
76725;SDS011;65651;53.154;17.916;2023-06-22T09:08:08;4.30;;;1.80;;
76725;SDS011;65651;53.154;17.916;2023-06-22T09:10:36;2.50;;;1.90;;
76725;SDS011;65651;53.154;17.916;2023-06-22T09:13:09;4.80;;;2.10;;
76725;SDS011;65651;53.154;17.916;2023-06-22T09:15:40;3.70;;;1.40;;
76725;SDS011;65651;53.154;17.916;2023-06-22T09:18:10;3.30;;;2.10;;
76725;SDS011;65651;53.154;17.916;2023-06-22T09:20:41;3.80;;;2.00;;
76725;SDS011;65651;53.154;17.916;2023-06-22T09:23:11;2.30;;;1.60;;
76725;SDS011;65651;53.154;17.916;2023-06-22T09:25:38;2.70;;;1.30;;
76725;SDS011;65651;53.154;17.916;2023-06-22T09:28:07;2.10;;;1.80;;
76725;SDS011;65651;53.154;17.916;2023-06-22T09:30:36;2.50;;;1.90;;
76725;SDS011;65651;53.154;17.916;2023-06-22T09:33:16;2.70;;;1.80;;
76725;SDS011;65651;53.154;17.916;2023-06-22T09:35:51;3.60;;;1.60;;
76725;SDS011;65651;53.154;17.916;2023-06-22T09:38:44;2.90;;;1.90;;
76725;SDS011;65651;53.154;17.916;2023-06-22T09:41:20;2.40;;;1.60;;
76725;SDS011;65651;53.154;17.916;2023-06-22T09:44:08;2.80;;;2.00;;
76725;SDS011;65651;53.154;17.916;2023-06-22T09:46:52;1.80;;;1.60;;
76725;SDS011;65651;53.154;17.916;2023-06-22T09:49:28;2.30;;;1.70;;
76725;SDS011;65651;53.154;17.916;2023-06-22T09:52:04;5.10;;;1.60;;
76725;SDS011;65651;53.154;17.916;2023-06-22T09:54:32;3.30;;;1.90;;
76725;SDS011;65651;53.154;17.916;2023-06-22T09:57:09;1.50;;;1.00;;
76725;SDS011;65651;53.154;17.916;2023-06-22T09:59:36;3.80;;;2.00;;
76725;SDS011;65651;53.154;17.916;2023-06-22T10:02:06;3.30;;;1.90;;
76725;SDS011;65651;53.154;17.916;2023-06-22T10:04:35;2.60;;;1.70;;
76725;SDS011;65651;53.154;17.916;2023-06-22T10:07:02;3.70;;;1.60;;
76725;SDS011;65651;53.154;17.916;2023-06-22T10:09:32;5.30;;;1.70;;
76725;SDS011;65651;53.154;17.916;2023-06-22T10:12:18;2.30;;;1.70;;
76725;SDS011;65651;53.154;17.916;2023-06-22T10:14:46;2.50;;;1.80;;
76725;SDS011;65651;53.154;17.916;2023-06-22T10:17:26;2.10;;;1.90;;
76725;SDS011;65651;53.154;17.916;2023-06-22T10:20:08;2.70;;;1.80;;
76725;SDS011;65651;53.154;17.916;2023-06-22T10:23:02;3.30;;;2.10;;
76725;SDS011;65651;53.154;17.916;2023-06-22T10:25:35;10.70;;;1.60;;
76725;SDS011;65651;53.154;17.916;2023-06-22T10:28:10;5.90;;;1.80;;
76725;SDS011;65651;53.154;17.916;2023-06-22T10:30:50;3.40;;;1.90;;
76725;SDS011;65651;53.154;17.916;2023-06-22T10:33:20;2.60;;;1.60;;
76725;SDS011;65651;53.154;17.916;2023-06-22T10:35:56;2.90;;;1.90;;
76725;SDS011;65651;53.154;17.916;2023-06-22T10:38:25;4.50;;;2.20;;
76725;SDS011;65651;53.154;17.916;2023-06-22T10:41:00;1.80;;;1.50;;
76725;SDS011;65651;53.154;17.916;2023-06-22T10:43:41;3.30;;;2.00;;
76725;SDS011;65651;53.154;17.916;2023-06-22T10:46:10;3.40;;;1.90;;
76725;SDS011;65651;53.154;17.916;2023-06-22T10:48:40;3.00;;;1.70;;
76725;SDS011;65651;53.154;17.916;2023-06-22T10:51:07;8.10;;;2.40;;
76725;SDS011;65651;53.154;17.916;2023-06-22T10:53:35;2.60;;;1.90;;
76725;SDS011;65651;53.154;17.916;2023-06-22T10:56:07;3.10;;;1.60;;
76725;SDS011;65651;53.154;17.916;2023-06-22T10:58:36;3.00;;;1.50;;
76725;SDS011;65651;53.154;17.916;2023-06-22T11:01:03;4.20;;;2.10;;
76725;SDS011;65651;53.154;17.916;2023-06-22T11:03:30;2.40;;;1.60;;
76725;SDS011;65651;53.154;17.916;2023-06-22T11:06:00;4.50;;;2.20;;
76725;SDS011;65651;53.154;17.916;2023-06-22T11:08:28;4.40;;;2.00;;
76725;SDS011;65651;53.154;17.916;2023-06-22T11:10:55;4.00;;;1.90;;
76725;SDS011;65651;53.154;17.916;2023-06-22T11:13:23;2.30;;;1.80;;
76725;SDS011;65651;53.154;17.916;2023-06-22T11:15:54;2.90;;;1.70;;
76725;SDS011;65651;53.154;17.916;2023-06-22T11:18:25;4.50;;;2.20;;
76725;SDS011;65651;53.154;17.916;2023-06-22T11:20:57;5.90;;;1.60;;
76725;SDS011;65651;53.154;17.916;2023-06-22T11:23:38;3.40;;;1.60;;
76725;SDS011;65651;53.154;17.916;2023-06-22T11:26:05;2.20;;;1.20;;
76725;SDS011;65651;53.154;17.916;2023-06-22T11:28:36;1.40;;;0.90;;
76725;SDS011;65651;53.154;17.916;2023-06-22T11:31:14;6.40;;;1.80;;
76725;SDS011;65651;53.154;17.916;2023-06-22T11:33:42;2.30;;;1.50;;
76725;SDS011;65651;53.154;17.916;2023-06-22T11:36:15;3.90;;;1.20;;
76725;SDS011;65651;53.154;17.916;2023-06-22T11:38:43;3.00;;;1.50;;
76725;SDS011;65651;53.154;17.916;2023-06-22T11:41:13;4.60;;;2.10;;
76725;SDS011;65651;53.154;17.916;2023-06-22T11:43:41;3.80;;;2.00;;
76725;SDS011;65651;53.154;17.916;2023-06-22T11:46:08;4.60;;;1.60;;
76725;SDS011;65651;53.154;17.916;2023-06-22T11:48:35;2.30;;;1.10;;
76725;SDS011;65651;53.154;17.916;2023-06-22T11:51:03;2.00;;;1.40;;
76725;SDS011;65651;53.154;17.916;2023-06-22T11:53:33;2.70;;;1.70;;
76725;SDS011;65651;53.154;17.916;2023-06-22T11:56:01;2.70;;;1.70;;
76725;SDS011;65651;53.154;17.916;2023-06-22T11:58:29;2.70;;;1.70;;
76725;SDS011;65651;53.154;17.916;2023-06-22T12:00:56;2.50;;;1.50;;
76725;SDS011;65651;53.154;17.916;2023-06-22T12:03:23;4.60;;;1.50;;
76725;SDS011;65651;53.154;17.916;2023-06-22T12:05:53;4.60;;;2.20;;
76725;SDS011;65651;53.154;17.916;2023-06-22T12:08:20;2.60;;;2.10;;
76725;SDS011;65651;53.154;17.916;2023-06-22T12:10:49;2.60;;;1.90;;
76725;SDS011;65651;53.154;17.916;2023-06-22T12:13:17;2.70;;;1.80;;
76725;SDS011;65651;53.154;17.916;2023-06-22T12:15:45;2.90;;;1.80;;
76725;SDS011;65651;53.154;17.916;2023-06-22T12:18:13;4.60;;;3.10;;
76725;SDS011;65651;53.154;17.916;2023-06-22T12:20:43;2.50;;;1.80;;
76725;SDS011;65651;53.154;17.916;2023-06-22T12:23:11;3.40;;;1.90;;
76725;SDS011;65651;53.154;17.916;2023-06-22T12:25:39;3.40;;;2.10;;
76725;SDS011;65651;53.154;17.916;2023-06-22T12:28:06;3.50;;;1.80;;
76725;SDS011;65651;53.154;17.916;2023-06-22T12:30:33;3.20;;;2.10;;
76725;SDS011;65651;53.154;17.916;2023-06-22T12:33:01;2.10;;;1.70;;
76725;SDS011;65651;53.154;17.916;2023-06-22T12:35:28;3.90;;;1.90;;
76725;SDS011;65651;53.154;17.916;2023-06-22T12:37:55;2.80;;;1.80;;
76725;SDS011;65651;53.154;17.916;2023-06-22T12:40:23;3.80;;;2.00;;
76725;SDS011;65651;53.154;17.916;2023-06-22T12:42:50;1.80;;;1.50;;
76725;SDS011;65651;53.154;17.916;2023-06-22T12:45:18;3.30;;;2.20;;
76725;SDS011;65651;53.154;17.916;2023-06-22T12:47:47;3.40;;;1.90;;
76725;SDS011;65651;53.154;17.916;2023-06-22T12:50:16;4.70;;;2.30;;
76725;SDS011;65651;53.154;17.916;2023-06-22T12:52:43;3.00;;;2.30;;
76725;SDS011;65651;53.154;17.916;2023-06-22T12:55:11;2.90;;;2.10;;
76725;SDS011;65651;53.154;17.916;2023-06-22T12:57:38;2.80;;;2.10;;
76725;SDS011;65651;53.154;17.916;2023-06-22T13:00:05;3.30;;;1.80;;
76725;SDS011;65651;53.154;17.916;2023-06-22T13:02:34;3.90;;;1.80;;
76725;SDS011;65651;53.154;17.916;2023-06-22T13:05:02;4.00;;;2.00;;
76725;SDS011;65651;53.154;17.916;2023-06-22T13:07:31;5.60;;;2.40;;
76725;SDS011;65651;53.154;17.916;2023-06-22T13:09:59;5.50;;;2.40;;
76725;SDS011;65651;53.154;17.916;2023-06-22T13:12:26;3.40;;;2.20;;
76725;SDS011;65651;53.154;17.916;2023-06-22T13:14:54;7.20;;;2.40;;
76725;SDS011;65651;53.154;17.916;2023-06-22T13:17:21;2.60;;;1.70;;
76725;SDS011;65651;53.154;17.916;2023-06-22T13:19:48;3.40;;;2.00;;
76725;SDS011;65651;53.154;17.916;2023-06-22T13:22:32;3.60;;;2.00;;
76725;SDS011;65651;53.154;17.916;2023-06-22T13:25:07;4.60;;;2.50;;
76725;SDS011;65651;53.154;17.916;2023-06-22T13:27:39;4.90;;;2.40;;
76725;SDS011;65651;53.154;17.916;2023-06-22T13:30:08;3.60;;;1.80;;
76725;SDS011;65651;53.154;17.916;2023-06-22T13:32:36;3.00;;;1.80;;
76725;SDS011;65651;53.154;17.916;2023-06-22T13:35:03;2.90;;;2.20;;
76725;SDS011;65651;53.154;17.916;2023-06-22T13:37:31;3.20;;;1.90;;
76725;SDS011;65651;53.154;17.916;2023-06-22T13:39:58;2.80;;;2.10;;
76725;SDS011;65651;53.154;17.916;2023-06-22T13:42:26;5.60;;;2.30;;
76725;SDS011;65651;53.154;17.916;2023-06-22T13:44:53;3.50;;;2.50;;
76725;SDS011;65651;53.154;17.916;2023-06-22T13:47:21;2.70;;;2.00;;
76725;SDS011;65651;53.154;17.916;2023-06-22T13:49:48;2.90;;;2.20;;
76725;SDS011;65651;53.154;17.916;2023-06-22T13:52:16;3.00;;;2.00;;
76725;SDS011;65651;53.154;17.916;2023-06-22T13:54:43;3.70;;;2.30;;
76725;SDS011;65651;53.154;17.916;2023-06-22T13:57:13;3.40;;;2.40;;
76725;SDS011;65651;53.154;17.916;2023-06-22T13:59:40;3.90;;;2.40;;
76725;SDS011;65651;53.154;17.916;2023-06-22T14:02:07;5.80;;;2.30;;
76725;SDS011;65651;53.154;17.916;2023-06-22T14:04:35;3.40;;;2.20;;
76725;SDS011;65651;53.154;17.916;2023-06-22T14:07:02;3.60;;;2.00;;
76725;SDS011;65651;53.154;17.916;2023-06-22T14:09:30;2.90;;;1.50;;
76725;SDS011;65651;53.154;17.916;2023-06-22T14:11:57;2.60;;;1.80;;
76725;SDS011;65651;53.154;17.916;2023-06-22T14:14:24;4.20;;;2.10;;
76725;SDS011;65651;53.154;17.916;2023-06-22T14:16:53;4.50;;;1.80;;
76725;SDS011;65651;53.154;17.916;2023-06-22T14:19:21;3.80;;;2.00;;
76725;SDS011;65651;53.154;17.916;2023-06-22T14:21:48;3.50;;;2.50;;
76725;SDS011;65651;53.154;17.916;2023-06-22T14:24:15;2.70;;;1.70;;
76725;SDS011;65651;53.154;17.916;2023-06-22T14:26:42;2.50;;;2.10;;
76725;SDS011;65651;53.154;17.916;2023-06-22T14:29:12;3.50;;;2.10;;
76725;SDS011;65651;53.154;17.916;2023-06-22T14:31:39;4.10;;;2.30;;
76725;SDS011;65651;53.154;17.916;2023-06-22T14:34:07;2.90;;;2.40;;
76725;SDS011;65651;53.154;17.916;2023-06-22T14:36:34;2.80;;;2.40;;
76725;SDS011;65651;53.154;17.916;2023-06-22T14:39:02;2.20;;;1.90;;
76725;SDS011;65651;53.154;17.916;2023-06-22T14:41:30;2.70;;;1.90;;
76725;SDS011;65651;53.154;17.916;2023-06-22T14:43:57;3.30;;;2.40;;
76725;SDS011;65651;53.154;17.916;2023-06-22T14:46:25;4.40;;;2.40;;
76725;SDS011;65651;53.154;17.916;2023-06-22T14:48:52;3.90;;;2.40;;